createdAt,value
2023-10-29T00:00:58.964Z,97.72
2023-10-29T00:01:58.914Z,97.87
2023-10-29T00:02:59.029Z,97.77
2023-10-29T00:03:58.937Z,97.77
2023-10-29T00:04:58.759Z,98.07
2023-10-29T00:05:58.803Z,97.92
2023-10-29T00:06:58.749Z,97.78
2023-10-29T00:07:58.656Z,97.78
2023-10-29T00:08:58.664Z,97.67
2023-10-29T00:09:58.605Z,98.08
2023-10-29T00:10:58.555Z,97.99
2023-10-29T00:11:58.553Z,97.57
2023-10-29T00:12:58.562Z,97.67
2023-10-29T00:13:58.455Z,97.88
2023-10-29T00:14:58.520Z,97.88
2023-10-29T00:15:58.400Z,97.67
2023-10-29T00:16:58.361Z,97.78
2023-10-29T00:17:58.451Z,97.67
2023-10-29T00:18:58.339Z,97.82
2023-10-29T00:19:58.248Z,97.88
2023-10-29T00:20:58.256Z,97.99
2023-10-29T00:21:58.183Z,97.67
2023-10-29T00:22:58.139Z,97.67
2023-10-29T00:23:58.171Z,97.99
2023-10-29T00:24:58.165Z,97.67
2023-10-29T00:25:58.043Z,97.63
2023-10-29T00:26:58.013Z,97.63
2023-10-29T00:27:57.981Z,97.63
2023-10-29T00:28:57.937Z,97.83
2023-10-29T00:29:57.921Z,97.63
2023-10-29T00:30:57.970Z,97.73
2023-10-29T00:31:57.842Z,97.83
2023-10-29T00:32:57.852Z,97.67
2023-10-29T00:33:57.768Z,97.63
2023-10-29T00:34:57.730Z,97.63
2023-10-29T00:35:57.699Z,97.63
2023-10-29T00:36:57.720Z,97.88
2023-10-29T00:37:57.638Z,97.73
2023-10-29T00:38:57.645Z,97.83
2023-10-29T00:39:57.571Z,97.63
2023-10-29T00:40:57.538Z,97.73
2023-10-29T00:41:57.516Z,97.94
2023-10-29T00:42:57.525Z,97.78
2023-10-29T00:43:57.460Z,97.63
2023-10-29T00:44:57.494Z,97.83
2023-10-29T00:45:57.403Z,97.63
2023-10-29T00:46:57.338Z,97.73
2023-10-29T00:47:57.417Z,97.63
2023-10-29T00:48:57.260Z,97.67
2023-10-29T00:49:57.214Z,97.83
2023-10-29T00:50:57.253Z,97.67
2023-10-29T00:51:57.151Z,97.63
2023-10-29T00:52:57.118Z,97.73
2023-10-29T00:53:57.201Z,97.63
2023-10-29T00:54:57.045Z,97.94
2023-10-29T00:55:57.061Z,97.73
2023-10-29T00:56:57.026Z,97.73
2023-10-29T00:57:56.946Z,97.73
2023-10-29T00:58:56.918Z,97.83
2023-10-29T00:59:56.970Z,97.73
2023-10-29T01:00:56.874Z,97.73
2023-10-29T01:01:56.813Z,97.53
2023-10-29T01:02:56.911Z,97.83
2023-10-29T01:03:56.855Z,97.73
2023-10-29T01:04:56.707Z,97.73
2023-10-29T01:05:56.809Z,97.83
2023-10-29T01:06:56.639Z,97.83
2023-10-29T01:07:56.620Z,97.73
2023-10-29T01:08:56.630Z,97.69
2023-10-29T01:09:56.532Z,97.83
2023-10-29T01:10:56.509Z,97.83
2023-10-29T01:11:56.572Z,97.69
2023-10-29T01:12:56.985Z,97.79
2023-10-29T01:13:56.976Z,97.48
2023-10-29T01:14:57.046Z,97.69
2023-10-29T01:15:56.356Z,97.69
2023-10-29T01:16:56.422Z,97.44
2023-10-29T01:17:57.439Z,97.64
2023-10-29T01:18:56.236Z,97.64
2023-10-29T01:19:56.196Z,97.64
2023-10-29T01:20:56.208Z,97.64
2023-10-29T01:21:56.128Z,97.64
2023-10-29T01:22:56.092Z,97.44
2023-10-29T01:23:56.139Z,97.44
2023-10-29T01:24:56.034Z,97.44
2023-10-29T01:25:55.995Z,97.64
2023-10-29T01:26:55.994Z,97.60
2023-10-29T01:27:57.839Z,97.64
2023-10-29T01:28:55.896Z,97.60
2023-10-29T01:29:55.926Z,97.60
2023-10-29T01:30:55.838Z,97.80
2023-10-29T01:31:55.816Z,97.60
2023-10-29T01:32:55.808Z,97.49
2023-10-29T01:33:55.737Z,97.70
2023-10-29T01:34:55.692Z,97.60
2023-10-29T01:35:55.813Z,97.70
2023-10-29T01:36:55.742Z,97.60
2023-10-29T01:37:55.587Z,97.60
2023-10-29T01:38:55.702Z,97.49
2023-10-29T01:39:55.519Z,97.49
2023-10-29T01:40:55.545Z,97.70
2023-10-29T01:41:55.480Z,97.80
2023-10-29T01:42:55.426Z,97.80
2023-10-29T01:43:55.386Z,97.80
2023-10-29T01:44:55.389Z,97.75
2023-10-29T01:45:55.334Z,97.45
2023-10-29T01:46:55.341Z,97.45
2023-10-29T01:47:55.294Z,97.65
2023-10-29T01:48:55.237Z,97.45
2023-10-29T01:49:55.181Z,97.75
2023-10-29T01:50:55.227Z,97.75
2023-10-29T01:51:55.115Z,97.86
2023-10-29T01:52:55.131Z,97.75
2023-10-29T01:53:55.096Z,97.65
2023-10-29T01:54:55.015Z,97.71
2023-10-29T01:55:54.985Z,97.75
2023-10-29T01:56:55.032Z,97.30
2023-10-29T01:57:54.908Z,97.55
2023-10-29T01:58:54.955Z,97.61
2023-10-29T01:59:54.868Z,97.75
2023-10-29T02:00:54.831Z,97.75
2023-10-29T02:01:54.780Z,97.40
2023-10-29T02:02:54.895Z,97.71
2023-10-29T02:03:54.796Z,97.50
2023-10-29T02:04:54.730Z,97.30
2023-10-29T02:05:54.675Z,97.50
2023-10-29T02:06:54.616Z,97.40
2023-10-29T02:07:54.572Z,97.40
2023-10-29T02:08:54.585Z,97.50
2023-10-29T02:09:54.567Z,97.30
2023-10-29T02:10:54.484Z,97.40
2023-10-29T02:11:54.494Z,97.30
2023-10-29T02:12:54.480Z,97.30
2023-10-29T02:13:54.400Z,97.30
2023-10-29T02:14:54.377Z,97.61
2023-10-29T02:15:54.609Z,97.30
2023-10-29T02:16:54.291Z,97.50
2023-10-29T02:17:54.284Z,97.61
2023-10-29T02:18:54.214Z,97.61
2023-10-29T02:19:54.177Z,97.36
2023-10-29T02:20:54.259Z,97.30
2023-10-29T02:21:54.168Z,97.46
2023-10-29T02:22:54.077Z,97.36
2023-10-29T02:23:54.122Z,97.30
2023-10-29T02:24:54.018Z,97.30
2023-10-29T02:25:53.977Z,97.40
2023-10-29T02:26:53.978Z,97.77
2023-10-29T02:27:53.963Z,97.25
2023-10-29T02:30:08.644Z,97.81
2023-10-29T02:31:08.659Z,97.61
2023-10-29T02:32:08.567Z,97.56
2023-10-29T02:33:08.662Z,97.56
2023-10-29T02:34:08.507Z,96.99
2023-10-29T02:35:08.479Z,97.66
2023-10-29T02:36:08.432Z,97.87
2023-10-29T02:37:08.418Z,97.66
2023-10-29T02:38:08.363Z,96.84
2023-10-29T02:39:08.397Z,97.05
2023-10-29T02:40:08.358Z,96.95
2023-10-29T02:41:08.329Z,97.25
2023-10-29T02:42:08.237Z,96.84
2023-10-29T02:43:08.209Z,96.74
2023-10-29T02:44:08.276Z,96.95
2023-10-29T02:45:08.169Z,96.95
2023-10-29T02:46:08.147Z,96.84
2023-10-29T02:47:08.159Z,96.74
2023-10-29T02:48:08.097Z,96.95
2023-10-29T02:49:08.006Z,96.95
2023-10-29T02:50:08.041Z,96.84
2023-10-29T02:51:07.937Z,96.84
2023-10-29T02:52:07.953Z,96.95
2023-10-29T02:53:07.997Z,96.54
2023-10-29T02:54:07.838Z,96.54
2023-10-29T02:55:07.869Z,96.44
2023-10-29T02:56:07.808Z,96.54
2023-10-29T02:57:07.750Z,96.74
2023-10-29T02:58:07.703Z,96.29
2023-10-29T02:59:07.761Z,96.39
2023-10-29T03:00:07.692Z,96.49
2023-10-29T03:01:07.670Z,96.39
2023-10-29T03:02:07.573Z,96.49
2023-10-29T03:03:07.778Z,96.59
2023-10-29T03:04:07.666Z,96.49
2023-10-29T03:05:07.528Z,96.49
2023-10-29T03:06:07.632Z,96.70
2023-10-29T03:07:07.407Z,96.39
2023-10-29T03:08:07.423Z,96.70
2023-10-29T03:09:07.353Z,96.70
2023-10-29T03:10:07.305Z,96.59
2023-10-29T03:11:07.270Z,96.29
2023-10-29T03:12:07.239Z,96.19
2023-10-29T03:13:07.269Z,96.70
2023-10-29T03:14:07.181Z,96.80
2023-10-29T03:15:07.161Z,96.70
2023-10-29T03:16:07.145Z,96.70
2023-10-29T03:17:07.085Z,96.70
2023-10-29T03:18:07.110Z,96.70
2023-10-29T03:19:07.066Z,96.80
2023-10-29T03:20:06.966Z,96.55
2023-10-29T03:21:06.940Z,96.49
2023-10-29T03:22:06.949Z,96.49
2023-10-29T03:23:06.892Z,96.19
2023-10-29T03:24:06.839Z,96.39
2023-10-29T03:25:06.921Z,96.19
2023-10-29T03:26:06.778Z,96.03
2023-10-29T03:27:06.748Z,96.29
2023-10-29T03:28:06.706Z,95.98
2023-10-29T03:29:06.671Z,95.98
2023-10-29T03:30:06.653Z,95.88
2023-10-29T03:31:06.703Z,95.88
2023-10-29T03:32:06.582Z,95.78
2023-10-29T03:33:06.570Z,95.78
2023-10-29T03:34:06.510Z,95.78
2023-10-29T03:35:06.485Z,96.29
2023-10-29T03:36:06.504Z,96.19
2023-10-29T03:37:06.462Z,95.98
2023-10-29T03:38:06.375Z,95.88
2023-10-29T03:39:06.349Z,95.78
2023-10-29T03:40:06.308Z,95.78
2023-10-29T03:41:06.277Z,95.98
2023-10-29T03:42:06.248Z,95.78
2023-10-29T03:43:06.271Z,95.78
2023-10-29T03:44:06.175Z,95.98
2023-10-29T03:45:06.195Z,95.88
2023-10-29T03:46:06.129Z,95.78
2023-10-29T03:47:06.081Z,95.94
2023-10-29T03:48:06.194Z,95.78
2023-10-29T03:49:06.085Z,95.88
2023-10-29T03:50:05.977Z,95.73
2023-10-29T03:51:05.949Z,95.94
2023-10-29T03:52:05.920Z,95.84
2023-10-29T03:53:05.874Z,95.73
2023-10-29T03:54:05.838Z,95.88
2023-10-29T03:55:05.891Z,95.63
2023-10-29T03:56:05.776Z,95.73
2023-10-29T03:57:05.747Z,95.73
2023-10-29T03:58:05.709Z,95.73
2023-10-29T03:59:05.685Z,95.63
2023-10-29T04:00:05.646Z,95.94
2023-10-29T04:01:05.674Z,96.04
2023-10-29T04:02:05.577Z,95.94
2023-10-29T04:03:05.618Z,95.94
2023-10-29T04:04:05.549Z,95.84
2023-10-29T04:05:09.412Z,96.04
2023-10-29T04:06:05.441Z,96.14
2023-10-29T04:07:05.476Z,96.14
2023-10-29T04:08:05.382Z,96.04
2023-10-29T04:09:05.372Z,95.59
2023-10-29T04:10:05.364Z,95.94
2023-10-29T04:11:05.291Z,95.73
2023-10-29T04:12:05.288Z,95.63
2023-10-29T04:13:05.265Z,96.04
2023-10-29T04:14:05.180Z,95.94
2023-10-29T04:15:05.179Z,95.89
2023-10-29T04:16:05.198Z,95.69
2023-10-29T04:17:05.330Z,95.69
2023-10-29T04:18:05.125Z,95.59
2023-10-29T04:19:05.073Z,95.59
2023-10-29T04:20:05.037Z,95.79
2023-10-29T04:21:05.037Z,95.89
2023-10-29T04:22:04.912Z,96.00
2023-10-29T04:23:04.890Z,95.89
2023-10-29T04:24:04.924Z,95.89
2023-10-29T04:25:04.864Z,95.79
2023-10-29T04:26:04.782Z,96.30
2023-10-29T04:27:04.769Z,96.00
2023-10-29T04:28:04.715Z,96.10
2023-10-29T04:29:04.699Z,96.00
2023-10-29T04:30:04.694Z,96.00
2023-10-29T04:31:04.753Z,96.10
2023-10-29T04:32:04.650Z,96.00
2023-10-29T04:33:04.722Z,96.10
2023-10-29T04:34:04.514Z,96.10
2023-10-29T04:35:04.496Z,95.69
2023-10-29T04:36:04.477Z,95.59
2023-10-29T04:37:04.424Z,96.10
2023-10-29T04:38:04.384Z,96.10
2023-10-29T04:39:04.450Z,96.00
2023-10-29T04:40:04.331Z,95.18
2023-10-29T04:41:04.300Z,95.07
2023-10-29T04:42:04.277Z,95.28
2023-10-29T04:43:04.223Z,96.00
2023-10-29T04:44:04.186Z,96.10
2023-10-29T04:45:04.253Z,95.18
2023-10-29T04:46:04.153Z,96.10
2023-10-29T04:47:04.100Z,96.10
2023-10-29T04:48:04.206Z,96.00
2023-10-29T04:49:04.025Z,96.00
2023-10-29T04:50:03.993Z,96.10
2023-10-29T04:51:04.072Z,96.00
2023-10-29T04:52:03.924Z,96.00
2023-10-29T04:53:03.895Z,96.00
2023-10-29T04:54:03.960Z,95.38
2023-10-29T04:55:03.833Z,96.00
2023-10-29T04:56:03.790Z,95.38
2023-10-29T04:57:03.824Z,96.15
2023-10-29T04:58:03.728Z,96.20
2023-10-29T04:59:03.728Z,96.00
2023-10-29T05:00:03.676Z,96.00
2023-10-29T05:01:03.626Z,96.00
2023-10-29T05:02:03.590Z,95.95
2023-10-29T05:03:05.820Z,96.10
2023-10-29T05:04:03.597Z,95.95
2023-10-29T05:05:03.490Z,95.34
2023-10-29T05:06:03.588Z,96.05
2023-10-29T05:07:03.439Z,96.10
2023-10-29T05:08:03.430Z,96.05
2023-10-29T05:09:03.467Z,95.23
2023-10-29T05:10:03.343Z,95.23
2023-10-29T05:11:03.303Z,95.95
2023-10-29T05:12:03.307Z,95.23
2023-10-29T05:13:03.232Z,95.64
2023-10-29T05:14:03.200Z,96.05
2023-10-29T05:15:03.274Z,95.03
2023-10-29T05:16:03.150Z,95.03
2023-10-29T05:17:03.106Z,95.13
2023-10-29T05:18:03.121Z,95.03
2023-10-29T05:19:03.032Z,95.54
2023-10-29T05:20:02.995Z,95.34
2023-10-29T05:21:03.245Z,95.54
2023-10-29T05:22:02.941Z,95.54
2023-10-29T05:23:02.914Z,95.23
2023-10-29T05:24:02.902Z,95.23
2023-10-29T05:25:02.848Z,95.34
2023-10-29T05:26:02.804Z,95.23
2023-10-29T05:27:02.885Z,95.29
2023-10-29T05:28:02.732Z,95.19
2023-10-29T05:29:02.718Z,95.23
2023-10-29T05:30:02.686Z,95.19
2023-10-29T05:31:02.677Z,95.03
2023-10-29T05:32:02.610Z,95.23
2023-10-29T05:33:02.706Z,95.23
2023-10-29T05:34:02.547Z,95.23
2023-10-29T05:35:02.973Z,95.34
2023-10-29T05:36:02.530Z,95.23
2023-10-29T05:37:02.442Z,95.19
2023-10-29T05:38:02.412Z,95.19
2023-10-29T05:39:02.450Z,95.19
2023-10-29T05:40:02.341Z,95.13
2023-10-29T05:41:02.304Z,95.13
2023-10-29T05:42:02.299Z,95.29
2023-10-29T05:43:02.231Z,94.98
2023-10-29T05:44:02.278Z,95.60
2023-10-29T05:45:02.287Z,95.39
2023-10-29T05:46:02.158Z,95.19
2023-10-29T05:47:02.114Z,95.29
2023-10-29T05:48:02.126Z,95.50
2023-10-29T05:49:02.041Z,95.29
2023-10-29T05:50:02.026Z,95.29
2023-10-29T05:51:02.064Z,95.19
2023-10-29T05:52:01.943Z,95.39
2023-10-29T05:53:01.912Z,95.09
2023-10-29T05:54:01.919Z,95.39
2023-10-29T05:55:01.845Z,95.19
2023-10-29T05:56:01.809Z,95.50
2023-10-29T05:57:01.900Z,95.39
2023-10-29T05:58:01.760Z,95.29
2023-10-29T05:59:01.717Z,95.29
2023-10-29T06:00:01.718Z,95.29
2023-10-29T06:01:01.711Z,95.50
2023-10-29T06:02:01.613Z,95.19
2023-10-29T06:03:01.733Z,95.50
2023-10-29T06:04:01.754Z,95.39
2023-10-29T06:05:02.175Z,95.45
2023-10-29T06:06:01.532Z,95.09
2023-10-29T06:07:01.448Z,95.39
2023-10-29T06:08:01.464Z,95.29
2023-10-29T06:09:06.942Z,95.50
2023-10-29T06:10:01.406Z,95.19
2023-10-29T06:11:01.323Z,95.39
2023-10-29T06:12:01.336Z,95.29
2023-10-29T06:13:01.248Z,95.29
2023-10-29T06:14:01.225Z,94.78
2023-10-29T06:15:01.226Z,95.45
2023-10-29T06:16:01.210Z,95.09
2023-10-29T06:17:11.915Z,95.29
2023-10-29T06:18:01.298Z,95.45
2023-10-29T06:19:01.047Z,95.19
2023-10-29T06:20:01.131Z,95.35
2023-10-29T06:21:01.014Z,95.35
2023-10-29T06:22:01.015Z,95.35
2023-10-29T06:23:00.924Z,95.35
2023-10-29T06:24:00.934Z,95.35
2023-10-29T06:25:00.871Z,95.35
2023-10-29T06:26:00.837Z,95.25
2023-10-29T06:27:00.825Z,95.15
2023-10-29T06:28:00.815Z,95.15
2023-10-29T06:29:00.731Z,95.56
2023-10-29T06:30:00.819Z,95.45
2023-10-29T06:31:00.668Z,95.56
2023-10-29T06:32:00.626Z,95.56
2023-10-29T06:33:00.736Z,95.76
2023-10-29T06:34:00.670Z,95.65
2023-10-29T06:35:00.535Z,95.56
2023-10-29T06:36:00.530Z,94.84
2023-10-29T06:37:00.465Z,94.64
2023-10-29T06:38:00.436Z,94.84
2023-10-29T06:39:00.472Z,94.64
2023-10-29T06:40:00.379Z,95.04
2023-10-29T06:41:00.340Z,94.84
2023-10-29T06:42:01.314Z,94.74
2023-10-29T06:43:00.275Z,94.74
2023-10-29T06:44:00.287Z,94.84
2023-10-29T06:45:00.373Z,95.10
2023-10-29T06:46:00.185Z,94.74
2023-10-29T06:47:00.148Z,94.70
2023-10-29T06:48:00.255Z,94.59
2023-10-29T06:49:00.101Z,94.79
2023-10-29T06:50:00.051Z,94.94
2023-10-29T06:51:00.100Z,94.90
2023-10-29T06:51:59.980Z,94.94
2023-10-29T06:52:59.941Z,95.00
2023-10-29T06:53:59.961Z,95.00
2023-10-29T06:54:59.868Z,95.00
2023-10-29T06:55:59.878Z,95.15
2023-10-29T06:57:00.941Z,95.10
2023-10-29T06:57:59.771Z,95.15
2023-10-29T06:58:59.750Z,95.15
2023-10-29T06:59:59.720Z,94.90
2023-10-29T07:00:59.674Z,95.10
2023-10-29T07:01:59.644Z,94.90
2023-10-29T07:02:59.995Z,94.79
2023-10-29T07:03:59.676Z,94.90
2023-10-29T07:04:59.586Z,95.20
2023-10-29T07:05:59.540Z,95.10
2023-10-29T07:06:59.532Z,94.90
2023-10-29T07:07:59.456Z,95.25
2023-10-29T07:08:59.429Z,94.90
2023-10-29T07:09:59.392Z,95.10
2023-10-29T07:10:59.353Z,94.64
2023-10-29T07:11:59.354Z,94.59
2023-10-29T07:12:59.345Z,94.59
2023-10-29T07:13:59.254Z,94.38
2023-10-29T07:14:59.285Z,94.49
2023-10-29T07:15:59.217Z,94.38
2023-10-29T07:16:59.162Z,94.70
2023-10-29T07:17:59.199Z,94.59
2023-10-29T07:18:59.248Z,94.59
2023-10-29T07:19:59.134Z,94.18
2023-10-29T07:20:59.067Z,94.18
2023-10-29T07:21:58.994Z,94.18
2023-10-29T07:22:58.958Z,94.38
2023-10-29T07:23:58.952Z,94.29
2023-10-29T07:24:59.037Z,94.29
2023-10-29T07:25:58.869Z,94.49
2023-10-29T07:26:58.837Z,94.18
2023-10-29T07:27:58.798Z,94.38
2023-10-29T07:28:58.765Z,94.49
2023-10-29T07:29:58.782Z,94.38
2023-10-29T07:30:58.749Z,94.18
2023-10-29T07:31:58.759Z,94.18
2023-10-29T07:32:58.761Z,94.29
2023-10-29T07:33:58.699Z,94.49
2023-10-29T07:34:58.689Z,94.29
2023-10-29T07:35:58.561Z,94.08
2023-10-29T07:36:58.666Z,94.38
2023-10-29T07:37:58.476Z,94.18
2023-10-29T07:38:58.584Z,94.38
2023-10-29T07:39:58.411Z,94.38
2023-10-29T07:40:58.367Z,94.59
2023-10-29T07:41:58.411Z,94.18
2023-10-29T07:42:58.361Z,94.33
2023-10-29T07:43:58.283Z,94.53
2023-10-29T07:44:58.263Z,94.59
2023-10-29T07:45:58.270Z,94.59
2023-10-29T07:46:58.173Z,94.64
2023-10-29T07:47:58.235Z,94.18
2023-10-29T07:48:58.191Z,94.38
2023-10-29T07:49:58.081Z,94.38
2023-10-29T07:50:58.090Z,94.59
2023-10-29T07:51:58.021Z,94.59
2023-10-29T07:52:58.745Z,94.29
2023-10-29T07:54:00.585Z,94.38
2023-10-29T07:54:58.791Z,94.59
2023-10-29T07:55:57.880Z,94.59
2023-10-29T07:56:57.878Z,94.38
2023-10-29T07:57:57.824Z,94.38
2023-10-29T07:58:57.778Z,94.59
2023-10-29T07:59:57.809Z,94.18
2023-10-29T08:00:57.846Z,94.08
2023-10-29T08:01:57.690Z,94.49
2023-10-29T08:02:57.713Z,94.18
2023-10-29T08:03:57.729Z,94.45
2023-10-29T08:04:57.592Z,94.49
2023-10-29T08:05:57.572Z,94.59
2023-10-29T08:06:57.586Z,94.08
2023-10-29T08:07:57.496Z,94.24
2023-10-29T08:08:57.481Z,94.34
2023-10-29T08:09:57.431Z,94.45
2023-10-29T08:10:57.392Z,94.70
2023-10-29T08:11:57.426Z,94.65
2023-10-29T08:12:57.388Z,94.59
2023-10-29T08:13:57.307Z,94.79
2023-10-29T08:14:57.308Z,94.85
2023-10-29T08:15:57.263Z,94.75
2023-10-29T08:16:57.196Z,94.75
2023-10-29T08:17:57.281Z,94.85
2023-10-29T08:18:57.190Z,93.84
2023-10-29T08:19:57.115Z,94.55
2023-10-29T08:20:57.099Z,93.73
2023-10-29T08:21:57.039Z,94.14
2023-10-29T08:22:57.000Z,93.84
2023-10-29T08:23:56.996Z,93.84
2023-10-29T08:24:56.990Z,93.32
2023-10-29T08:25:56.915Z,93.84
2023-10-29T08:26:56.891Z,93.32
2023-10-29T08:27:56.861Z,93.89
2023-10-29T08:28:56.819Z,93.63
2023-10-29T08:29:56.781Z,94.09
2023-10-29T08:31:05.426Z,93.59
2023-10-29T08:31:56.747Z,93.69
2023-10-29T08:32:56.790Z,93.59
2023-10-29T08:33:56.658Z,93.74
2023-10-29T08:34:56.624Z,93.85
2023-10-29T08:35:56.595Z,93.64
2023-10-29T08:36:56.611Z,93.74
2023-10-29T08:37:56.514Z,93.09
2023-10-29T08:38:56.607Z,93.50
2023-10-29T08:39:56.463Z,93.50
2023-10-29T08:40:56.419Z,93.25
2023-10-29T08:41:56.443Z,93.76
2023-10-29T08:42:56.435Z,93.70
2023-10-29T08:43:56.327Z,93.45
2023-10-29T08:44:56.373Z,92.74
2023-10-29T08:45:56.325Z,92.84
2023-10-29T08:46:56.337Z,92.94
2023-10-29T08:47:56.263Z,93.15
2023-10-29T08:48:56.255Z,93.01
2023-10-29T08:49:56.137Z,93.15
2023-10-29T08:50:56.133Z,92.94
2023-10-29T08:51:56.069Z,92.80
2023-10-29T08:52:56.052Z,92.74
2023-10-29T08:53:56.022Z,93.10
2023-10-29T08:54:56.047Z,93.10
2023-10-29T08:55:55.972Z,93.10
2023-10-29T08:56:55.969Z,93.15
2023-10-29T08:57:55.894Z,93.25
2023-10-29T08:58:55.860Z,93.15
2023-10-29T08:59:55.841Z,92.94
2023-10-29T09:00:55.861Z,92.64
2023-10-29T09:01:55.752Z,92.80
2023-10-29T09:02:55.897Z,92.80
2023-10-29T09:03:55.793Z,93.21
2023-10-29T09:04:55.710Z,92.90
2023-10-29T09:05:55.675Z,93.05
2023-10-29T09:06:55.683Z,93.15
2023-10-29T09:07:55.565Z,92.60
2023-10-29T09:08:55.598Z,93.25
2023-10-29T09:09:55.501Z,92.94
2023-10-29T09:10:55.497Z,93.05
2023-10-29T09:11:55.475Z,93.25
2023-10-29T09:12:55.489Z,93.05
2023-10-29T09:13:55.369Z,93.01
2023-10-29T09:14:55.408Z,92.90
2023-10-29T09:15:55.322Z,93.01
2023-10-29T09:16:55.316Z,92.80
2023-10-29T09:17:55.325Z,93.10
2023-10-29T09:18:55.354Z,92.90
2023-10-29T09:19:55.199Z,92.45
2023-10-29T09:20:55.257Z,92.25
2023-10-29T09:21:55.123Z,91.94
2023-10-29T09:22:55.117Z,92.35
2023-10-29T09:23:55.133Z,92.14
2023-10-29T09:24:55.253Z,92.00
2023-10-29T09:25:55.008Z,92.10
2023-10-29T09:26:55.784Z,92.10
2023-10-29T09:27:54.936Z,92.30
2023-10-29T09:28:54.946Z,92.47
2023-10-29T09:29:54.896Z,92.16
2023-10-29T09:30:54.942Z,92.16
2023-10-29T09:31:54.830Z,91.75
2023-10-29T09:32:57.398Z,91.80
2023-10-29T09:33:54.742Z,91.49
2023-10-29T09:34:54.740Z,91.29
2023-10-29T09:35:54.797Z,91.60
2023-10-29T09:36:54.968Z,91.90
2023-10-29T09:37:54.619Z,92.10
2023-10-29T09:38:54.601Z,92.21
2023-10-29T09:39:54.564Z,92.21
2023-10-29T09:40:56.741Z,92.21
2023-10-29T09:41:54.528Z,91.49
2023-10-29T09:42:54.578Z,92.10
2023-10-29T09:43:54.437Z,92.30
2023-10-29T09:44:54.448Z,91.64
2023-10-29T09:45:54.380Z,92.04
2023-10-29T09:46:55.272Z,92.25
2023-10-29T09:47:54.400Z,92.04
2023-10-29T09:48:54.350Z,92.00
2023-10-29T09:49:54.250Z,91.80
2023-10-29T09:50:54.267Z,91.49
2023-10-29T09:51:54.181Z,91.60
2023-10-29T09:52:54.318Z,92.21
2023-10-29T09:53:54.161Z,91.80
2023-10-29T09:54:54.341Z,91.80
2023-10-29T09:55:54.056Z,92.45
2023-10-29T09:56:54.054Z,92.00
2023-10-29T09:57:54.010Z,91.69
2023-10-29T09:58:53.976Z,91.49
2023-10-29T09:59:53.944Z,91.80
2023-10-29T10:00:54.000Z,91.80
2023-10-29T10:01:58.836Z,91.60
2023-10-29T10:02:53.970Z,91.49
2023-10-29T10:03:53.922Z,91.60
2023-10-29T10:04:53.783Z,91.80
2023-10-29T10:05:53.816Z,91.45
2023-10-29T10:06:53.793Z,91.69
2023-10-29T10:07:53.694Z,91.69
2023-10-29T10:08:53.680Z,92.00
2023-10-29T10:09:53.631Z,91.60
2023-10-29T10:10:53.584Z,91.80
2023-10-29T10:11:53.609Z,91.39
2023-10-29T10:12:53.587Z,91.60
2023-10-29T10:13:53.503Z,91.49
2023-10-29T10:14:53.560Z,90.88
2023-10-29T10:15:53.437Z,91.19
2023-10-29T10:16:53.400Z,91.09
2023-10-29T10:17:53.517Z,91.49
2023-10-29T10:18:53.360Z,90.88
2023-10-29T10:19:53.312Z,90.88
2023-10-29T10:20:53.330Z,91.19
2023-10-29T10:21:53.242Z,91.49
2023-10-29T10:22:53.214Z,91.19
2023-10-29T10:23:53.264Z,91.09
2023-10-29T10:24:53.279Z,91.49
2023-10-29T10:25:53.135Z,91.39
2023-10-29T10:26:53.107Z,91.39
2023-10-29T10:27:53.055Z,91.39
2023-10-29T10:28:53.029Z,90.78
2023-10-29T10:29:53.067Z,91.39
2023-10-29T10:30:52.961Z,90.99
2023-10-29T10:31:52.956Z,91.29
2023-10-29T10:32:53.017Z,90.48
2023-10-29T10:33:52.859Z,91.45
2023-10-29T10:34:52.970Z,90.74
2023-10-29T10:35:53.072Z,91.14
2023-10-29T10:36:52.843Z,91.25
2023-10-29T10:37:52.745Z,91.05
2023-10-29T10:38:52.764Z,91.10
2023-10-29T10:39:52.692Z,91.35
2023-10-29T10:40:52.713Z,90.74
2023-10-29T10:41:52.642Z,91.14
2023-10-29T10:42:52.584Z,91.35
2023-10-29T10:43:52.550Z,91.55
2023-10-29T10:44:52.526Z,91.14
2023-10-29T10:45:52.531Z,91.00
2023-10-29T10:46:52.580Z,91.00
2023-10-29T10:47:52.649Z,90.45
2023-10-29T10:48:52.396Z,90.35
2023-10-29T10:49:52.364Z,90.71
2023-10-29T10:50:52.362Z,91.08
2023-10-29T10:51:52.304Z,90.16
2023-10-29T10:52:52.334Z,89.92
2023-10-29T10:53:52.249Z,89.67
2023-10-29T10:54:52.221Z,89.26
2023-10-29T10:56:03.238Z,89.43
2023-10-29T10:56:52.191Z,88.68
2023-10-29T10:57:52.119Z,88.57
2023-10-29T10:58:52.169Z,88.98
2023-10-29T10:59:52.090Z,88.23
2023-10-29T11:00:52.038Z,88.74
2023-10-29T11:01:52.085Z,88.53
2023-10-29T11:02:52.038Z,88.84
2023-10-29T11:03:52.061Z,88.33
2023-10-29T11:04:52.288Z,88.33
2023-10-29T11:05:51.896Z,88.33
2023-10-29T11:06:51.850Z,88.33
2023-10-29T11:07:51.812Z,88.84
2023-10-29T11:08:51.808Z,88.13
2023-10-29T11:09:51.781Z,88.70
2023-10-29T11:10:51.772Z,88.59
2023-10-29T11:11:51.762Z,88.19
2023-10-29T11:12:51.673Z,88.19
2023-10-29T11:13:51.628Z,88.19
2023-10-29T11:14:51.643Z,88.49
2023-10-29T11:15:51.720Z,87.58
2023-10-29T11:16:51.721Z,88.09
2023-10-29T11:17:51.606Z,88.29
2023-10-29T11:18:51.493Z,88.94
2023-10-29T11:19:51.519Z,88.13
2023-10-29T11:20:51.426Z,88.84
2023-10-29T11:21:51.411Z,88.84
2023-10-29T11:22:51.425Z,88.13
2023-10-29T11:23:51.362Z,88.64
2023-10-29T11:24:51.307Z,88.23
2023-10-29T11:25:51.326Z,88.13
2023-10-29T11:26:51.267Z,88.23
2023-10-29T11:27:51.220Z,88.53
2023-10-29T11:28:51.249Z,88.13
2023-10-29T11:29:51.171Z,87.79
2023-10-29T11:30:51.126Z,87.48
2023-10-29T11:31:51.169Z,87.28
2023-10-29T11:32:51.128Z,87.88
2023-10-29T11:33:51.063Z,87.48
2023-10-29T11:34:51.064Z,88.19
2023-10-29T11:35:51.031Z,88.39
2023-10-29T11:36:50.967Z,87.48
2023-10-29T11:37:50.990Z,87.44
2023-10-29T11:38:50.904Z,87.44
2023-10-29T11:39:50.911Z,86.93
2023-10-29T11:40:50.886Z,87.24
2023-10-29T11:41:50.832Z,87.13
2023-10-29T11:42:50.805Z,87.24
2023-10-29T11:43:50.759Z,87.34
2023-10-29T11:44:50.874Z,87.34
2023-10-29T11:45:50.698Z,87.64
2023-10-29T11:46:50.714Z,87.04
2023-10-29T11:47:50.701Z,87.24
2023-10-29T11:48:50.637Z,87.04
2023-10-29T11:49:50.579Z,86.93
2023-10-29T11:50:50.565Z,87.24
2023-10-29T11:51:50.527Z,87.24
2023-10-29T11:52:50.544Z,87.18
2023-10-29T11:53:50.479Z,87.24
2023-10-29T11:54:50.551Z,87.34
2023-10-29T11:55:50.391Z,87.04
2023-10-29T11:56:50.462Z,86.93
2023-10-29T11:57:50.338Z,86.73
2023-10-29T11:58:50.329Z,86.73
2023-10-29T11:59:50.398Z,87.13
2023-10-29T12:00:50.292Z,87.04
2023-10-29T12:01:50.253Z,86.73
2023-10-29T12:02:50.243Z,86.90
2023-10-29T12:03:50.232Z,86.39
2023-10-29T12:04:50.370Z,86.65
2023-10-29T12:05:50.194Z,85.94
2023-10-29T12:06:50.073Z,84.93
2023-10-29T12:07:50.043Z,84.89
2023-10-29T12:08:50.028Z,84.85
2023-10-29T12:09:49.981Z,85.66
2023-10-29T12:10:50.011Z,84.95
2023-10-29T12:11:49.976Z,85.66
2023-10-29T12:12:49.888Z,85.46
2023-10-29T12:13:49.933Z,85.25
2023-10-29T12:14:49.997Z,85.76
2023-10-29T12:15:49.814Z,85.90
2023-10-29T12:16:49.870Z,85.80
2023-10-29T12:17:49.850Z,85.90
2023-10-29T12:18:49.720Z,85.70
2023-10-29T12:19:49.691Z,85.40
2023-10-29T12:20:49.692Z,85.50
2023-10-29T12:21:50.293Z,85.70
2023-10-29T12:22:49.657Z,85.10
2023-10-29T12:23:49.587Z,85.19
2023-10-29T12:24:49.718Z,85.19
2023-10-29T12:25:49.523Z,85.40
2023-10-29T12:26:49.503Z,84.99
2023-10-29T12:27:49.466Z,84.69
2023-10-29T12:28:49.501Z,84.99
2023-10-29T12:29:49.438Z,85.25
2023-10-29T12:30:49.407Z,84.55
2023-10-29T12:31:49.359Z,84.85
2023-10-29T12:32:49.377Z,85.70
2023-10-29T12:33:49.286Z,85.80
2023-10-29T12:34:49.429Z,85.70
2023-10-29T12:35:49.303Z,85.54
2023-10-29T12:36:50.789Z,85.44
2023-10-29T12:37:49.184Z,85.34
2023-10-29T12:38:49.241Z,85.54
2023-10-29T12:39:49.112Z,85.99
2023-10-29T12:40:49.082Z,86.08
2023-10-29T12:41:49.065Z,86.59
2023-10-29T12:42:49.048Z,86.79
2023-10-29T12:43:49.019Z,86.49
2023-10-29T12:44:49.312Z,86.59
2023-10-29T12:45:48.983Z,86.08
2023-10-29T12:46:48.899Z,86.29
2023-10-29T12:47:49.038Z,87.19
2023-10-29T12:48:49.028Z,87.10
2023-10-29T12:49:49.110Z,87.10
2023-10-29T12:50:49.141Z,86.90
2023-10-29T12:51:48.764Z,87.10
2023-10-29T12:52:48.730Z,86.49
2023-10-29T12:53:48.735Z,86.79